Time;durP1;ratioP1;P1;durP2;ratioP2;P2;SDS_P1;SDS_P2;PMS_P1;PMS_P2;Temp;Humidity;BMP_temperature;BMP_pressure;BME280_temperature;BME280_humidity;BME280_pressure;Samples;Min_cycle;Max_cycle;Signal;HPM_P1;HPM_P2
2022/09/10 00:02:00;;;;;;;9.68;7.55;;;;;;;15.21;76.17;96940.25;1695105;84;27397;-88
2022/09/10 00:04:27;;;;;;;11.12;7.40;;;;;;;15.20;76.27;96931.81;1681435;84;25837;-89
2022/09/10 00:06:55;;;;;;;9.33;7.40;;;;;;;15.20;76.32;96931.28;1682966;83;25756;-87
2022/09/10 00:09:22;;;;;;;8.80;7.58;;;;;;;15.22;76.32;96922.30;1677841;84;25748;-88
2022/09/10 00:11:48;;;;;;;9.85;7.67;;;;;;;15.24;76.37;96922.88;1704735;82;25751;-87
2022/09/10 00:14:22;;;;;;;10.43;7.20;;;;;;;15.22;76.46;96918.77;1725576;82;28107;-87
2022/09/10 00:16:49;;;;;;;9.58;7.75;;;;;;;15.22;76.57;96927.74;1695808;83;25873;-89
2022/09/10 00:19:17;;;;;;;9.68;7.58;;;;;;;15.24;76.68;96925.59;1697041;83;25734;-88
2022/09/10 00:21:44;;;;;;;9.45;7.60;;;;;;;15.26;76.68;96930.25;1688530;84;26550;-89
2022/09/10 00:24:11;;;;;;;9.75;6.97;;;;;;;15.28;76.78;96929.47;1696690;83;25763;-89
2022/09/10 00:26:38;;;;;;;10.40;8.05;;;;;;;15.27;76.81;96922.92;1693288;83;27363;-87
2022/09/10 00:29:08;;;;;;;7.90;7.10;;;;;;;15.27;76.93;96923.74;1663053;85;25823;-88
2022/09/10 00:31:37;;;;;;;9.00;7.10;;;;;;;15.27;77.06;96933.26;1682682;84;25770;-88
2022/09/10 00:34:05;;;;;;;10.53;7.70;;;;;;;15.26;77.17;96931.61;1708029;83;26543;-89
2022/09/10 00:36:39;;;;;;;10.75;7.75;;;;;;;15.29;77.16;96935.73;1717643;83;25778;-88
2022/09/10 00:39:09;;;;;;;11.45;6.97;;;;;;;15.30;77.17;96934.12;1692598;84;28206;-87
2022/09/10 00:41:38;;;;;;;9.33;6.97;;;;;;;15.32;77.14;96936.05;1715222;83;25782;-88
2022/09/10 00:44:27;;;;;;;6.70;6.00;;;;;;;15.32;77.15;96937.41;1711901;82;25759;-87
2022/09/10 00:46:55;;;;;;;8.30;6.50;;;;;;;15.36;77.10;96940.43;1703719;82;26397;-88
2022/09/10 00:49:35;;;;;;;7.25;6.03;;;;;;;15.39;77.05;96948.09;1660628;85;25348;-87
2022/09/10 00:52:03;;;;;;;9.08;6.87;;;;;;;15.41;77.00;96950.02;1652979;83;27530;-88
2022/09/10 00:54:33;;;;;;;9.15;6.97;;;;;;;15.44;76.96;96958.52;1696664;83;25768;-86
2022/09/10 00:57:05;;;;;;;11.15;6.62;;;;;;;15.48;76.92;96958.27;1695747;82;25797;-85
2022/09/10 00:59:32;;;;;;;9.30;6.75;;;;;;;15.48;77.01;96953.36;1714587;82;25800;-86
2022/09/10 01:01:59;;;;;;;12.23;7.58;;;;;;;15.46;77.09;96963.12;1720627;81;26415;-86
2022/09/10 01:04:28;;;;;;;7.72;6.37;;;;;;;15.46;77.24;96966.39;1740048;81;27439;-84
2022/09/10 01:06:55;;;;;;;8.40;6.67;;;;;;;15.44;77.36;96967.20;1727938;81;25953;-84
2022/09/10 01:09:23;;;;;;;9.53;6.55;;;;;;;15.40;77.46;96964.70;1728619;82;26249;-85
2022/09/10 01:12:31;;;;;;;8.28;6.33;;;;;;;15.34;77.53;96963.80;1717187;82;25862;-85
2022/09/10 01:15:14;;;;;;;9.08;6.72;;;;;;;15.32;77.65;96952.37;1707230;82;25409;-83
2022/09/10 01:18:13;;;;;;;7.83;5.92;;;;;;;15.34;77.70;96952.09;1705911;82;29103;-84
2022/09/10 01:21:12;;;;;;;8.73;5.70;;;;;;;15.31;77.76;96955.34;1715927;81;25818;-83
2022/09/10 01:24:12;;;;;;;7.95;6.00;;;;;;;15.32;77.82;96949.66;1695945;81;25260;-85
2022/09/10 01:27:24;;;;;;;6.20;5.60;;;;;;;15.33;77.93;96943.14;1740921;82;26443;-82
2022/09/10 01:30:13;;;;;;;8.45;6.42;;;;;;;15.32;78.02;96941.49;1739489;82;25818;-82
2022/09/10 01:33:06;;;;;;;7.53;6.30;;;;;;;15.30;78.14;96946.36;1710489;82;27362;-81
2022/09/10 01:35:50;;;;;;;7.92;6.35;;;;;;;15.27;78.16;96949.58;1695074;83;25833;-82
2022/09/10 01:38:31;;;;;;;9.58;6.10;;;;;;;15.24;78.32;96953.32;1736533;82;25796;-83
2022/09/10 01:41:01;;;;;;;9.80;6.62;;;;;;;15.22;78.40;96945.41;1746866;80;25785;-83
2022/09/10 01:43:35;;;;;;;7.70;6.62;;;;;;;15.19;78.54;96936.42;1710510;81;25754;-83
2022/09/10 01:46:33;;;;;;;9.60;7.50;;;;;;;15.19;78.62;96936.42;1729390;82;27399;-82
2022/09/10 01:49:18;;;;;;;5.80;5.20;;;;;;;15.22;78.65;96934.54;1713508;82;25880;-83
2022/09/10 01:52:14;;;;;;;7.62;5.03;;;;;;;15.24;78.74;96934.29;1721118;82;25277;-85
2022/09/10 01:55:07;;;;;;;7.12;5.30;;;;;;;15.24;78.60;96936.47;1708374;81;25768;-85
2022/09/10 01:58:18;;;;;;;7.00;5.12;;;;;;;15.23;78.57;96934.83;1724689;82;25723;-84
2022/09/10 02:00:56;;;;;;;6.25;4.12;;;;;;;15.21;78.60;96938.36;1606704;87;27496;-84
2022/09/10 02:03:25;;;;;;;4.47;4.03;;;;;;;15.21;78.61;96935.64;1620551;87;25864;-83
2022/09/10 02:05:54;;;;;;;5.03;2.92;;;;;;;15.19;78.58;96924.19;1601044;88;25896;-83
2022/09/10 02:08:30;;;;;;;3.37;2.80;;;;;;;15.19;78.57;96921.47;1599236;88;25784;-84
2022/09/10 02:11:02;;;;;;;5.53;2.70;;;;;;;15.16;78.49;96917.89;1619469;87;25880;-84
2022/09/10 02:13:29;;;;;;;3.17;2.90;;;;;;;15.17;78.47;96919.53;1592731;88;27462;-85
2022/09/10 02:15:58;;;;;;;4.50;2.83;;;;;;;15.16;78.47;96915.17;1588944;88;25837;-85
2022/09/10 02:18:25;;;;;;;3.90;2.72;;;;;;;15.14;78.47;96911.88;1581962;88;25819;-84
2022/09/10 02:20:55;;;;;;;3.52;2.85;;;;;;;15.09;78.54;96907.19;1617960;88;25749;-84
2022/09/10 02:23:27;;;;;;;4.42;2.67;;;;;;;15.09;78.68;96903.67;1593544;88;26208;-84
2022/09/10 02:25:54;;;;;;;3.22;2.75;;;;;;;15.06;78.74;96908.25;1611550;88;27429;-84
2022/09/10 02:28:20;;;;;;;4.35;2.90;;;;;;;15.05;78.83;96896.55;1613676;88;26769;-85
2022/09/10 02:30:47;;;;;;;3.30;2.98;;;;;;;15.02;78.78;96886.71;1613824;88;25813;-84
2022/09/10 02:33:15;;;;;;;2.45;2.10;;;;;;;15.05;78.87;96884.86;1593560;88;25780;-84
2022/09/10 02:35:42;;;;;;;2.33;2.12;;;;;;;15.04;78.74;96878.59;1597456;85;25877;-84
2022/09/10 02:38:10;;;;;;;3.90;2.30;;;;;;;15.02;78.57;96872.59;1698516;84;27381;-85
2022/09/10 02:40:37;;;;;;;3.22;1.98;;;;;;;15.01;78.56;96872.83;1718465;82;25894;-85
2022/09/10 02:43:03;;;;;;;2.87;1.75;;;;;;;15.00;78.58;96872.55;1707054;83;26014;-85
2022/09/10 02:45:30;;;;;;;3.80;1.95;;;;;;;15.00;78.59;96877.98;1709439;82;25782;-84
2022/09/10 02:47:57;;;;;;;2.30;2.00;;;;;;;15.01;78.60;96879.62;1680164;83;25807;-84
2022/09/10 02:50:24;;;;;;;2.50;2.08;;;;;;;15.02;78.61;96879.92;1696540;84;27433;-83
2022/09/10 02:52:50;;;;;;;2.42;2.02;;;;;;;15.02;78.63;96874.48;1683575;83;25716;-84
2022/09/10 02:55:20;;;;;;;4.08;2.05;;;;;;;15.00;78.64;96874.73;1673643;84;25691;-84
2022/09/10 02:57:45;;;;;;;4.90;2.00;;;;;;;14.95;78.67;96870.61;1720429;82;25762;-84
2022/09/10 03:00:12;;;;;;;4.37;2.05;;;;;;;14.96;78.79;96870.06;1741717;82;25807;-83
2022/09/10 03:02:39;;;;;;;3.60;2.20;;;;;;;14.95;78.80;96875.22;1741767;80;28137;-83
2022/09/10 03:05:06;;;;;;;2.33;1.77;;;;;;;14.96;78.83;96871.42;1726044;82;25839;-84
2022/09/10 03:07:33;;;;;;;2.33;2.00;;;;;;;14.94;78.85;96874.93;1726910;82;25710;-84
2022/09/10 03:10:01;;;;;;;2.40;2.20;;;;;;;14.90;78.88;96877.85;1729589;81;26304;-84
2022/09/10 03:12:28;;;;;;;2.77;2.40;;;;;;;14.88;78.91;96881.35;1714155;82;26121;-84
2022/09/10 03:14:56;;;;;;;3.40;2.60;;;;;;;14.85;79.01;96873.73;1703802;82;27380;-84
2022/09/10 03:17:22;;;;;;;5.83;2.50;;;;;;;14.80;79.05;96885.88;1720975;82;27485;-83
2022/09/10 03:19:50;;;;;;;2.60;2.40;;;;;;;14.81;79.20;96883.44;1713394;82;25816;-83
2022/09/10 03:22:16;;;;;;;2.70;2.40;;;;;;;14.84;79.21;96881.59;1741764;82;26026;-84
2022/09/10 03:24:43;;;;;;;11.28;2.40;;;;;;;14.85;79.19;96880.52;1727421;80;25675;-84
2022/09/10 03:27:09;;;;;;;3.12;2.30;;;;;;;14.87;79.21;96879.17;1721255;82;27359;-82
2022/09/10 03:29:38;;;;;;;10.18;2.37;;;;;;;14.82;79.15;96880.48;1738888;82;25779;-83
2022/09/10 03:32:04;;;;;;;3.30;2.55;;;;;;;14.80;79.25;96874.47;1741598;82;25800;-84
2022/09/10 03:34:31;;;;;;;2.58;2.17;;;;;;;14.77;79.27;96875.78;1719541;82;26283;-84
2022/09/10 03:36:57;;;;;;;2.90;2.40;;;;;;;14.78;79.39;96873.36;1718351;82;25765;-84
2022/09/10 03:39:24;;;;;;;2.50;2.22;;;;;;;14.81;79.36;96874.76;1737600;82;27394;-84
2022/09/10 03:41:51;;;;;;;4.10;2.27;;;;;;;14.83;79.36;96874.52;1738674;82;25711;-83
2022/09/10 03:44:17;;;;;;;3.30;2.77;;;;;;;14.84;79.37;96878.88;1729755;81;25829;-84
2022/09/10 03:46:46;;;;;;;4.80;2.65;;;;;;;14.84;79.36;96878.88;1678878;82;25851;-83
2022/09/10 03:49:12;;;;;;;4.35;2.37;;;;;;;14.86;79.27;96876.70;1735912;81;25759;-84
2022/09/10 03:51:38;;;;;;;3.05;2.70;;;;;;;14.87;79.28;96883.25;1736611;82;28218;-84
2022/09/10 03:54:05;;;;;;;6.25;2.85;;;;;;;14.77;79.30;96854.59;1723792;82;25709;-84
2022/09/10 03:56:31;;;;;;;4.30;2.95;;;;;;;14.87;79.36;96874.27;1741726;82;25934;-84
2022/09/10 03:58:59;;;;;;;4.28;3.15;;;;;;;14.86;79.32;96876.70;1712555;82;25675;-83
2022/09/10 04:01:26;;;;;;;10.58;5.12;;;;;;;14.84;79.39;96878.88;1708877;83;25737;-84
2022/09/10 04:03:56;;;;;;;14.10;8.13;;;;;;;14.81;79.42;96884.80;1706882;83;27345;-84
2022/09/10 04:06:22;;;;;;;13.13;9.13;;;;;;;14.76;79.45;96877.39;1670048;83;25850;-84
2022/09/10 04:08:55;;;;;;;14.15;8.73;;;;;;;14.76;79.54;96875.50;1687916;82;25813;-84
2022/09/10 04:11:20;;;;;;;14.55;8.18;;;;;;;14.79;79.56;96882.33;1679735;85;26323;-85
2022/09/10 04:13:47;;;;;;;12.93;7.65;;;;;;;14.78;79.54;96878.79;1680986;83;25821;-87
2022/09/10 04:16:15;;;;;;;11.00;8.18;;;;;;;14.78;79.62;96882.05;1679607;83;27391;-85
2022/09/10 04:18:42;;;;;;;19.85;12.68;;;;;;;14.75;79.70;96886.61;1678759;83;25770;-85
2022/09/10 04:21:08;;;;;;;22.52;14.33;;;;;;;14.75;79.67;96887.44;1698180;83;26227;-86
2022/09/10 04:23:35;;;;;;;20.05;14.47;;;;;;;14.76;79.67;96884.19;1691632;83;26077;-85
2022/09/10 04:26:14;;;;;;;15.93;12.73;;;;;;;14.78;79.67;96880.69;1707866;83;25749;-85
2022/09/10 04:28:41;;;;;;;13.28;10.23;;;;;;;14.78;79.62;96884.22;1694810;82;27605;-86
2022/09/10 04:31:07;;;;;;;12.37;9.30;;;;;;;14.80;79.62;96885.88;1680070;83;25912;-86
2022/09/10 04:33:34;;;;;;;17.52;9.98;;;;;;;14.79;79.61;96886.41;1690328;83;25678;-85
2022/09/10 04:36:01;;;;;;;11.88;8.90;;;;;;;14.80;79.65;96879.08;1707026;83;25808;-85
2022/09/10 04:38:31;;;;;;;7.62;5.45;;;;;;;14.79;79.62;96882.33;1681966;82;25718;-85
2022/09/10 04:40:59;;;;;;;7.17;5.12;;;;;;;14.81;79.68;96875.30;1681120;83;27354;-86
2022/09/10 04:43:27;;;;;;;6.20;4.92;;;;;;;14.82;79.72;96875.58;1674951;83;25775;-86
2022/09/10 04:45:54;;;;;;;13.83;6.60;;;;;;;14.82;79.69;96874.22;1685719;83;25762;-86
2022/09/10 04:48:22;;;;;;;15.10;8.78;;;;;;;14.81;79.73;96873.94;1682990;84;25926;-86
2022/09/10 04:50:52;;;;;;;15.60;8.98;;;;;;;14.81;79.78;96869.86;1690365;82;25779;-86
2022/09/10 04:53:20;;;;;;;9.95;7.47;;;;;;;14.82;79.72;96863.35;1696855;83;27432;-86
2022/09/10 04:55:48;;;;;;;8.28;7.15;;;;;;;14.83;79.72;96860.92;1674300;84;25806;-86
2022/09/10 04:58:15;;;;;;;9.98;6.70;;;;;;;14.81;79.72;96851.66;1680637;82;25738;-86
2022/09/10 05:00:41;;;;;;;8.05;7.17;;;;;;;14.81;79.74;96852.20;1722547;82;25819;-86
2022/09/10 05:03:08;;;;;;;12.82;6.87;;;;;;;14.80;79.76;96850.55;1713522;83;25798;-86
2022/09/10 05:05:34;;;;;;;8.00;6.15;;;;;;;14.74;79.74;96849.64;1707081;82;27382;-86
2022/09/10 05:08:03;;;;;;;5.67;4.50;;;;;;;14.72;79.88;96849.92;1712363;81;25726;-85
2022/09/10 05:10:29;;;;;;;7.08;3.83;;;;;;;14.71;79.89;96848.28;1731711;82;25749;-86
2022/09/10 05:12:57;;;;;;;7.17;5.87;;;;;;;14.72;79.94;96841.77;1702292;82;25800;-86
2022/09/10 05:15:23;;;;;;;8.38;6.70;;;;;;;14.73;79.86;96845.31;1725037;82;25799;-86
2022/09/10 05:17:50;;;;;;;7.97;6.30;;;;;;;14.73;79.95;96846.11;1717375;81;27594;-86
2022/09/10 05:20:17;;;;;;;7.30;5.85;;;;;;;14.75;80.00;96846.68;1727680;82;25820;-86
2022/09/10 05:22:43;;;;;;;6.00;4.72;;;;;;;14.74;80.03;96851.83;1714949;81;25812;-86
2022/09/10 05:25:10;;;;;;;5.05;4.30;;;;;;;14.74;80.05;96851.00;1732241;82;25776;-86
2022/09/10 05:27:36;;;;;;;3.95;3.42;;;;;;;14.75;80.07;96849.40;1716658;81;25733;-86
2022/09/10 05:30:04;;;;;;;5.70;3.17;;;;;;;14.78;80.10;96851.63;1679381;82;27363;-86
2022/09/10 05:32:31;;;;;;;5.90;3.95;;;;;;;14.81;80.12;96850.84;1720675;82;25834;-85
2022/09/10 05:34:58;;;;;;;5.75;3.80;;;;;;;14.81;80.19;96848.13;1718908;81;25774;-85
2022/09/10 05:37:24;;;;;;;6.45;3.72;;;;;;;14.82;80.19;96842.98;1743671;82;25712;-86
2022/09/10 05:39:51;;;;;;;3.47;3.17;;;;;;;14.83;80.31;96845.98;1738014;81;25735;-86
2022/09/10 05:42:17;;;;;;;6.12;3.55;;;;;;;14.85;80.24;96839.77;1685530;83;27346;-85
2022/09/10 05:44:44;;;;;;;4.20;3.22;;;;;;;14.87;80.29;96843.02;1709539;82;25817;-85
2022/09/10 05:47:10;;;;;;;5.05;3.40;;;;;;;14.87;80.27;96841.12;1712529;82;25725;-85
2022/09/10 05:49:37;;;;;;;5.72;3.12;;;;;;;14.89;80.36;96851.75;1694789;82;26534;-85
2022/09/10 05:52:04;;;;;;;5.58;3.10;;;;;;;14.94;80.37;96847.22;1719618;81;25673;-84
2022/09/10 05:54:30;;;;;;;5.30;3.08;;;;;;;14.97;80.26;96846.69;1716902;82;27414;-85
2022/09/10 05:56:57;;;;;;;3.77;3.02;;;;;;;14.95;80.12;96849.40;1738250;81;25295;-86
2022/09/10 05:59:25;;;;;;;4.55;2.83;;;;;;;14.92;80.14;96837.66;1743655;81;25773;-86
2022/09/10 06:01:51;;;;;;;3.22;2.40;;;;;;;14.89;80.18;96840.34;1739256;81;26277;-86
2022/09/10 06:04:18;;;;;;;3.00;2.22;;;;;;;14.91;80.26;96842.81;1726179;81;25797;-85
2022/09/10 06:06:46;;;;;;;2.98;2.70;;;;;;;14.94;80.35;96842.31;1709353;82;28392;-85
2022/09/10 06:09:13;;;;;;;4.12;2.90;;;;;;;14.96;80.37;96844.25;1713150;82;25850;-85
2022/09/10 06:11:40;;;;;;;3.12;2.83;;;;;;;14.99;80.46;96854.59;1726311;82;25694;-85
2022/09/10 06:14:07;;;;;;;4.55;3.40;;;;;;;15.02;80.50;96854.92;1709530;81;25792;-85
2022/09/10 06:16:34;;;;;;;4.53;2.87;;;;;;;15.06;80.44;96849.81;1709511;82;25753;-85
2022/09/10 06:19:02;;;;;;;4.20;2.92;;;;;;;15.06;80.40;96845.73;1729045;82;28149;-85
2022/09/10 06:21:28;;;;;;;4.60;3.45;;;;;;;15.08;80.40;96842.23;1709906;81;25980;-85
2022/09/10 06:23:55;;;;;;;7.90;4.83;;;;;;;15.09;80.33;96841.16;1709518;82;25824;-85
2022/09/10 06:26:22;;;;;;;7.37;4.97;;;;;;;15.09;80.37;96835.16;1709307;82;25782;-85
2022/09/10 06:28:53;;;;;;;5.25;4.75;;;;;;;15.11;80.27;96842.52;1709497;81;25851;-85
2022/09/10 06:31:19;;;;;;;5.90;4.25;;;;;;;15.13;80.34;96843.63;1707699;82;28421;-86
2022/09/10 06:33:52;;;;;;;5.12;4.42;;;;;;;15.16;80.46;96843.13;1715476;82;25808;-85
2022/09/10 06:36:15;;;;;;;4.70;4.10;;;;;;;15.17;80.31;96846.14;1732125;82;25310;-85
2022/09/10 06:38:43;;;;;;;5.33;4.00;;;;;;;15.19;80.30;96839.09;1730129;81;25745;-86
2022/09/10 06:41:15;;;;;;;5.62;4.55;;;;;;;15.20;80.29;96845.64;1719036;82;25655;-86
2022/09/10 06:43:42;;;;;;;4.95;3.87;;;;;;;15.21;80.35;96839.13;1689850;82;28286;-85
2022/09/10 06:46:13;;;;;;;4.15;3.75;;;;;;;15.20;80.32;96845.64;1727438;82;25894;-85
2022/09/10 06:48:41;;;;;;;5.03;3.40;;;;;;;15.20;80.35;96838.84;1710221;82;25742;-85
2022/09/10 06:51:11;;;;;;;4.30;3.08;;;;;;;15.22;80.26;96839.91;1728047;82;25752;-85
2022/09/10 06:53:40;;;;;;;3.40;3.10;;;;;;;15.23;80.24;96844.28;1689229;83;25780;-85
2022/09/10 06:56:10;;;;;;;3.85;3.00;;;;;;;15.28;80.39;96841.63;1704689;82;28062;-84
2022/09/10 06:58:37;;;;;;;5.58;3.08;;;;;;;15.29;80.34;96842.74;1712611;81;25752;-85
2022/09/10 07:01:17;;;;;;;3.52;3.05;;;;;;;15.32;80.38;96830.00;1742965;82;25498;-85
2022/09/10 07:03:45;;;;;;;3.30;2.80;;;;;;;15.39;80.48;96835.23;1717653;82;25962;-84
2022/09/10 07:06:15;;;;;;;4.42;3.20;;;;;;;15.44;80.31;96838.84;1712029;82;25716;-85
2022/09/10 07:08:42;;;;;;;5.58;3.20;;;;;;;15.49;80.40;96834.80;1712202;82;27412;-84
2022/09/10 07:11:13;;;;;;;5.12;3.50;;;;;;;15.58;80.49;96831.67;1710886;82;26328;-83
2022/09/10 07:13:42;;;;;;;3.55;3.08;;;;;;;15.63;80.27;96827.08;1697910;83;25783;-84
2022/09/10 07:16:09;;;;;;;3.47;3.17;;;;;;;15.68;80.12;96830.41;1717114;82;25757;-84
2022/09/10 07:18:35;;;;;;;4.72;3.60;;;;;;;15.72;80.12;96830.97;1728946;82;25681;-84
2022/09/10 07:21:12;;;;;;;4.58;3.85;;;;;;;15.75;80.11;96828.28;1711806;81;27347;-84
2022/09/10 07:23:38;;;;;;;5.87;4.03;;;;;;;15.79;80.11;96834.86;1712077;83;26179;-84
2022/09/10 07:26:12;;;;;;;6.75;4.70;;;;;;;15.84;80.04;96838.43;1711967;81;25761;-84
2022/09/10 07:28:43;;;;;;;5.58;4.30;;;;;;;15.91;79.99;96835.52;1711722;82;25851;-83
2022/09/10 07:31:26;;;;;;;4.97;4.47;;;;;;;15.96;79.99;96838.26;1713888;82;26276;-84
2022/09/10 07:33:53;;;;;;;7.17;4.25;;;;;;;16.02;79.91;96841.33;1727708;82;33689;-85
2022/09/10 07:36:21;;;;;;;6.10;4.40;;;;;;;16.06;79.79;96841.63;1714362;82;25703;-84
2022/09/10 07:38:54;;;;;;;4.95;4.40;;;;;;;16.10;79.77;96838.11;1724469;82;25829;-83
2022/09/10 07:41:21;;;;;;;5.33;4.42;;;;;;;16.14;79.86;96839.24;1713378;82;26117;-82
2022/09/10 07:43:52;;;;;;;6.70;4.75;;;;;;;16.17;79.63;96842.81;1689594;83;25846;-83
2022/09/10 07:46:19;;;;;;;5.17;4.58;;;;;;;16.23;79.64;96842.30;1732480;82;28337;-84
2022/09/10 07:48:55;;;;;;;7.17;4.50;;;;;;;16.29;79.67;96847.26;1732706;82;25276;-83
2022/09/10 07:51:23;;;;;;;4.00;3.47;;;;;;;16.32;79.52;96856.24;1710261;81;25773;-84
2022/09/10 07:53:55;;;;;;;3.98;3.30;;;;;;;16.35;79.20;96854.37;1718147;82;26452;-84
2022/09/10 07:56:22;;;;;;;9.35;3.87;;;;;;;16.35;78.91;96847.56;1742032;80;25736;-85
2022/09/10 07:58:50;;;;;;;7.37;3.92;;;;;;;16.34;78.89;96846.73;1736252;81;28179;-83
2022/09/10 08:01:18;;;;;;;5.80;4.00;;;;;;;16.36;78.94;96842.39;1724938;82;25722;-85
2022/09/10 08:03:45;;;;;;;4.90;3.65;;;;;;;16.35;79.03;96848.92;1733078;81;25712;-84
2022/09/10 08:06:12;;;;;;;7.58;4.12;;;;;;;16.36;78.97;96847.30;1720553;81;26465;-85
2022/09/10 08:08:39;;;;;;;5.60;3.83;;;;;;;16.35;78.85;96844.30;1726014;82;25793;-84
2022/09/10 08:11:13;;;;;;;5.30;4.25;;;;;;;16.38;78.85;96845.68;1718105;82;27369;-85
2022/09/10 08:13:44;;;;;;;5.90;4.45;;;;;;;16.43;78.95;96846.52;1724891;82;25617;-85
2022/09/10 08:16:14;;;;;;;5.47;3.87;;;;;;;16.50;78.68;96844.95;1717778;81;26361;-86
2022/09/10 08:18:42;;;;;;;6.15;4.05;;;;;;;16.53;78.60;96844.43;1741904;82;26391;-85
2022/09/10 08:21:09;;;;;;;4.50;3.98;;;;;;;16.54;78.50;96846.08;1716793;81;25750;-85
2022/09/10 08:23:38;;;;;;;5.42;4.42;;;;;;;16.56;78.50;96852.05;1711351;81;27353;-85
2022/09/10 08:26:06;;;;;;;5.65;4.30;;;;;;;16.56;78.29;96853.42;1726975;81;25751;-85
2022/09/10 08:28:35;;;;;;;6.62;4.72;;;;;;;16.57;78.25;96854.52;1737168;82;25705;-85
2022/09/10 08:31:08;;;;;;;6.37;4.70;;;;;;;16.53;78.13;96849.34;1730605;82;25746;-85
2022/09/10 08:33:38;;;;;;;5.60;4.75;;;;;;;16.46;78.03;96852.00;1726668;82;25773;-84
2022/09/10 08:36:08;;;;;;;4.92;4.50;;;;;;;16.45;78.28;96842.17;1712030;82;27413;-84
2022/09/10 08:38:41;;;;;;;5.85;4.75;;;;;;;16.47;78.41;96839.48;1685213;82;26323;-85
2022/09/10 08:41:20;;;;;;;6.25;5.62;;;;;;;16.50;78.67;96834.05;1730295;81;25940;-83
2022/09/10 08:43:58;;;;;;;9.85;6.30;;;;;;;16.54;78.63;96835.18;1710050;81;25689;-84
2022/09/10 08:46:28;;;;;;;5.85;5.20;;;;;;;16.58;78.76;96843.09;1741661;82;25790;-85
2022/09/10 08:49:09;;;;;;;7.90;6.55;;;;;;;16.62;78.88;96841.52;1704991;83;27365;-85
2022/09/10 08:51:44;;;;;;;8.88;7.97;;;;;;;16.66;78.87;96845.91;1726529;81;25788;-84
2022/09/10 08:54:16;;;;;;;10.43;8.05;;;;;;;16.69;78.79;96843.45;1732273;81;25774;-85
2022/09/10 08:56:44;;;;;;;12.37;8.70;;;;;;;16.74;78.65;96839.41;1705446;82;25765;-85
2022/09/10 08:59:22;;;;;;;12.45;9.35;;;;;;;16.76;78.52;96837.24;1736312;82;25261;-84
2022/09/10 09:01:59;;;;;;;13.80;12.33;;;;;;;16.78;78.47;96837.80;1727058;81;27411;-86
2022/09/10 09:04:38;;;;;;;16.50;13.68;;;;;;;16.81;78.48;96839.16;1708754;81;25755;-84
2022/09/10 09:07:12;;;;;;;17.37;14.03;;;;;;;16.81;78.43;96839.98;1700696;82;25920;-84
2022/09/10 09:09:38;;;;;;;17.52;14.73;;;;;;;16.83;78.50;96843.80;1709658;81;26092;-87
2022/09/10 09:12:19;;;;;;;18.90;15.70;;;;;;;16.84;78.52;96842.72;1713209;81;25818;-86
2022/09/10 09:15:18;;;;;;;22.48;16.25;;;;;;;16.84;78.42;96835.37;1709462;82;28423;-86
2022/09/10 09:18:16;;;;;;;20.00;15.68;;;;;;;16.82;78.33;96842.98;1628076;86;25761;-85
2022/09/10 09:20:55;;;;;;;17.62;15.68;;;;;;;16.76;78.47;96845.42;1629321;86;25814;-86
2022/09/10 09:23:50;;;;;;;18.27;15.50;;;;;;;16.73;78.55;96844.58;1629769;86;25839;-85
2022/09/10 09:26:18;;;;;;;15.88;12.65;;;;;;;16.70;78.60;96841.55;1597197;87;25844;-86
2022/09/10 09:28:59;;;;;;;16.90;11.80;;;;;;;16.64;78.58;96843.44;1627676;86;27423;-86
2022/09/10 09:31:30;;;;;;;13.93;12.10;;;;;;;16.61;78.66;96844.47;1649713;86;25358;-86
2022/09/10 09:34:02;;;;;;;13.58;12.10;;;;;;;16.58;78.70;96840.36;1634521;86;25899;-86
2022/09/10 09:36:36;;;;;;;12.80;11.50;;;;;;;16.54;78.88;96837.33;1650974;86;26505;-86
2022/09/10 09:39:11;;;;;;;12.47;11.18;;;;;;;16.57;78.89;96842.80;1632795;86;25989;-86
2022/09/10 09:42:03;;;;;;;12.93;11.70;;;;;;;16.57;78.97;96840.08;1654718;86;27397;-85
2022/09/10 09:44:47;;;;;;;11.45;10.20;;;;;;;16.58;79.00;96834.91;1649849;86;26043;-85
2022/09/10 09:47:13;;;;;;;9.83;8.83;;;;;;;16.57;79.08;96827.81;1625846;86;25875;-86
2022/09/10 09:49:40;;;;;;;9.48;8.48;;;;;;;16.61;79.04;96832.20;1659681;86;25836;-86
2022/09/10 09:52:22;;;;;;;9.70;8.70;;;;;;;16.64;79.08;96830.36;1661077;86;25845;-85
2022/09/10 09:54:55;;;;;;;8.93;8.03;;;;;;;16.70;79.10;96831.47;1698966;83;27402;-85
2022/09/10 09:57:23;;;;;;;8.88;8.05;;;;;;;16.78;79.10;96829.63;1720239;83;25950;-84
2022/09/10 09:59:50;;;;;;;8.80;7.72;;;;;;;16.84;79.10;96825.83;1719132;81;25724;-84
2022/09/10 10:02:22;;;;;;;7.75;6.87;;;;;;;16.91;79.24;96826.94;1704887;82;25901;-85
2022/09/10 10:05:23;;;;;;;7.62;6.92;;;;;;;16.99;79.11;96821.54;1704012;82;25761;-85
2022/09/10 10:07:52;;;;;;;8.10;7.30;;;;;;;17.06;79.10;96818.02;1704154;82;27448;-85
2022/09/10 10:10:27;;;;;;;7.85;6.03;;;;;;;17.19;79.39;96817.52;1720960;82;25732;-86
2022/09/10 10:12:55;;;;;;;8.58;6.72;;;;;;;17.28;79.18;96814.00;1677467;83;25850;-88
2022/09/10 10:15:41;;;;;;;6.42;5.83;;;;;;;17.36;78.76;96816.77;1713022;83;25764;-84
2022/09/10 10:18:30;;;;;;;5.50;5.00;;;;;;;17.37;78.61;96814.31;1727861;83;25683;-86
2022/09/10 10:21:32;;;;;;;6.33;5.75;;;;;;;17.39;78.38;96809.96;1705717;83;27446;-84
2022/09/10 10:23:59;;;;;;;5.90;4.60;;;;;;;17.40;78.75;96808.84;1716345;83;25707;-86
2022/09/10 10:26:32;;;;;;;4.72;4.33;;;;;;;17.47;78.39;96810.78;1701209;83;25715;-86
2022/09/10 10:29:18;;;;;;;4.70;4.30;;;;;;;17.48;78.10;96810.52;1715196;83;25836;-84
2022/09/10 10:31:50;;;;;;;5.40;4.87;;;;;;;17.52;78.07;96815.69;1695765;82;25741;-87
2022/09/10 10:34:39;;;;;;;5.90;5.30;;;;;;;17.52;77.92;96815.69;1699580;83;27436;-85
2022/09/10 10:37:18;;;;;;;5.70;5.15;;;;;;;17.53;77.76;96814.61;1684553;83;26089;-86
2022/09/10 10:40:07;;;;;;;6.78;6.08;;;;;;;17.49;77.69;96818.98;1696998;83;25721;-84
2022/09/10 10:42:52;;;;;;;7.33;6.10;;;;;;;17.41;77.73;96811.31;1714868;83;25849;-87
2022/09/10 10:45:51;;;;;;;6.72;6.03;;;;;;;17.35;77.70;96811.03;1699044;82;25820;-87
2022/09/10 10:48:26;;;;;;;6.80;5.87;;;;;;;17.31;77.83;96809.92;1719173;83;27359;-87
2022/09/10 10:51:21;;;;;;;9.18;7.05;;;;;;;17.33;77.82;96806.93;1698774;83;25252;-85
2022/09/10 10:54:23;;;;;;;7.92;7.12;;;;;;;17.34;77.93;96812.66;1706851;83;25317;-87
2022/09/10 10:57:08;;;;;;;;;;;;;;;17.34;78.00;96810.75;1730792;82;25680;-84
2022/09/10 10:59:56;;;;;;;7.50;6.45;;;;;;;17.27;78.03;96810.17;1699740;83;25826;-87
2022/09/10 11:03:11;;;;;;;7.20;6.50;;;;;;;17.28;78.11;96812.63;1714498;82;28274;-86
2022/09/10 11:05:41;;;;;;;8.30;7.42;;;;;;;17.32;78.15;96812.92;1716379;82;26019;-86
2022/09/10 11:08:43;;;;;;;7.97;6.95;;;;;;;17.37;78.27;96814.31;1749274;81;25770;-87
2022/09/10 11:11:16;;;;;;;8.90;6.83;;;;;;;17.41;78.55;96811.84;1728161;80;25745;-86
2022/09/10 11:14:06;;;;;;;6.72;6.12;;;;;;;17.44;78.19;96816.23;1748798;81;25757;-87
2022/09/10 11:16:40;;;;;;;6.08;5.47;;;;;;;17.50;78.21;96809.72;1735888;81;27561;-87
2022/09/10 11:19:19;;;;;;;6.72;6.00;;;;;;;17.58;78.35;96814.63;1713568;81;25915;-85
2022/09/10 11:22:03;;;;;;;6.05;4.95;;;;;;;17.69;78.63;96805.95;1711652;81;25782;-85
2022/09/10 11:24:56;;;;;;;5.45;4.42;;;;;;;17.81;78.41;96809.78;1717459;82;25782;-87
2022/09/10 11:27:33;;;;;;;5.50;4.22;;;;;;;17.89;78.02;96810.59;1714659;82;25732;-86
2022/09/10 11:30:10;;;;;;;5.17;4.20;;;;;;;17.91;77.71;96809.78;1714060;82;27335;-87
2022/09/10 11:33:00;;;;;;;6.65;5.75;;;;;;;17.92;77.54;96800.50;1713275;81;25707;-86
2022/09/10 11:35:40;;;;;;;5.22;4.30;;;;;;;17.92;77.63;96800.50;1732144;82;25929;-85
2022/09/10 11:38:21;;;;;;;5.83;4.58;;;;;;;17.90;77.36;96797.22;1686731;81;25893;-87
2022/09/10 11:41:12;;;;;;;5.43;4.93;;;;;;;17.86;77.52;96800.23;1718618;82;25808;-85
2022/09/10 11:43:57;;;;;;;5.00;4.50;;;;;;;17.87;77.64;96797.20;1734585;81;27362;-85
2022/09/10 11:46:37;;;;;;;5.05;4.55;;;;;;;17.96;77.76;96790.68;1731700;82;25853;-86
2022/09/10 11:49:17;;;;;;;4.08;3.70;;;;;;;18.08;77.65;96788.49;1713406;81;25742;-85
2022/09/10 11:51:46;;;;;;;5.50;3.85;;;;;;;18.18;77.25;96784.38;1708146;82;25898;-85
2022/09/10 11:54:28;;;;;;;4.83;3.72;;;;;;;18.23;76.94;96776.74;1728811;82;25714;-84
2022/09/10 11:57:23;;;;;;;3.75;3.15;;;;;;;18.23;76.95;96778.89;1733292;82;32510;-83
2022/09/10 12:00:15;;;;;;;3.25;2.95;;;;;;;18.40;76.63;96785.44;1711704;82;25779;-86